Eiyoshi Maru No.5 — JD2965 — position and weather

sailwx.info

Track history (hours):
 
Tides and Currents Weather Stations Pressure Air Temp Water Temp Dewpoint Dewpoint Depression Visibility Wind Speed Wind Dir Waves Ship Positions

Eiyoshi Maru No.5

Last reported at 2018-Jul-15 08:22 UTC. Time now 2018-Jul-19 19:19 UTC.
Position N 34°43' E 134°34'.

Length 64 m; draft 3.7 m.

Type: Cargo ship. MMSI: 431001092.

Date/timePositionNaut miles runAvg speedWind from/ knotsBaromVisibWave heightAir tempDewpointWater temp
2018-Jul-15 08:22N 34°43' E 134°34'  
2018-Jul-13 00:11N 34°41' E 134°46'311.2
2018-Jul-12 23:57N 34°40' E 134°49'511.7
2018-Jul-12 23:31N 34°37' E 134°54'712.8
2018-Jul-12 22:59N 34°37' E 135°02'611.5
2018-Jul-12 22:30N 34°37' E 135°09'611.3
2018-Jul-12 22:00N 34°38' E 135°16'610.8
2018-Jul-12 21:28N 34°40' E 135°23'3 0.2
2018-Jul-12 06:44N 34°41' E 135°26'0 1.2
2018-Jul-12 06:30N 34°41' E 135°26'4 8.7
2018-Jul-12 06:00N 34°37' E 135°24'2 0.2
2018-Jul-11 18:44N 34°35' E 135°26'1 5.3
2018-Jul-11 18:29N 34°36' E 135°25'4 9.1
2018-Jul-11 18:00N 34°33' E 135°21'610.3
2018-Jul-11 17:28N 34°30' E 135°16'4 9.8
2018-Jul-11 17:00N 34°27' E 135°12'5 9.5
2018-Jul-11 16:30N 34°23' E 135°08'5 9.6
2018-Jul-11 16:00N 34°19' E 135°04'4 7.5
2018-Jul-11 15:30N 34°16' E 135°03'510.2
2018-Jul-11 15:00N 34°11' E 135°02'510.3
2018-Jul-11 14:30N 34°05' E 135°02'510.3
2018-Jul-11 14:00N 34°00' E 135°02'5 9.6
2018-Jul-11 13:29N 33°55' E 135°02'  
2018-Jul-07 21:49N 33°58' E 134°56'5 9.0
2018-Jul-07 21:14N 34°02' E 134°52'2 8.7
2018-Jul-07 20:58N 34°04' E 134°50'4 8.6
2018-Jul-07 20:28N 34°07' E 134°47'8 9.3
2018-Jul-07 19:35N 34°13' E 134°40'17 9.2
2018-Jul-07 17:44N 34°21' E 134°22'  
Track history (hours):
 
Tides and Currents Weather Stations Pressure Air Temp Water Temp Dewpoint Dewpoint Depression Visibility Wind Speed Wind Dir Waves Ship Positions

Eiyoshi Maru No.5

Last reported at 2018-Jul-15 08:22 UTC. Time now 2018-Jul-19 19:19 UTC.
Position N 34°43' E 134°34'.

Length 64 m; draft 3.7 m.

Type: Cargo ship. MMSI: 431001092.

Date/timePositionNaut miles runAvg speedWind from/ knotsBaromVisibWave heightAir tempDewpointWater temp
2018-Jul-15 08:22N 34°43' E 134°34'  
2018-Jul-13 00:11N 34°41' E 134°46'311.2
2018-Jul-12 23:57N 34°40' E 134°49'511.7
2018-Jul-12 23:31N 34°37' E 134°54'712.8
2018-Jul-12 22:59N 34°37' E 135°02'611.5
2018-Jul-12 22:30N 34°37' E 135°09'611.3
2018-Jul-12 22:00N 34°38' E 135°16'610.8
2018-Jul-12 21:28N 34°40' E 135°23'3 0.2
2018-Jul-12 06:44N 34°41' E 135°26'0 1.2
2018-Jul-12 06:30N 34°41' E 135°26'4 8.7
2018-Jul-12 06:00N 34°37' E 135°24'2 0.2
2018-Jul-11 18:44N 34°35' E 135°26'1 5.3
2018-Jul-11 18:29N 34°36' E 135°25'4 9.1
2018-Jul-11 18:00N 34°33' E 135°21'610.3
2018-Jul-11 17:28N 34°30' E 135°16'4 9.8
2018-Jul-11 17:00N 34°27' E 135°12'5 9.5
2018-Jul-11 16:30N 34°23' E 135°08'5 9.6
2018-Jul-11 16:00N 34°19' E 135°04'4 7.5
2018-Jul-11 15:30N 34°16' E 135°03'510.2
2018-Jul-11 15:00N 34°11' E 135°02'510.3
2018-Jul-11 14:30N 34°05' E 135°02'510.3
2018-Jul-11 14:00N 34°00' E 135°02'5 9.6
2018-Jul-11 13:29N 33°55' E 135°02'  
2018-Jul-07 21:49N 33°58' E 134°56'5 9.0
2018-Jul-07 21:14N 34°02' E 134°52'2 8.7
2018-Jul-07 20:58N 34°04' E 134°50'4 8.6
2018-Jul-07 20:28N 34°07' E 134°47'8 9.3
2018-Jul-07 19:35N 34°13' E 134°40'17 9.2
2018-Jul-07 17:44N 34°21' E 134°22'  

Dump ship's entire track history